sensor_id;sensor_type;location;lat;lon;timestamp;P1;durP1;ratioP1;P2;durP2;ratioP2
43114;SDS011;28727;50.068;14.452;2022-12-07T00:00:12;5.70;;;2.97;;
43114;SDS011;28727;50.068;14.452;2022-12-07T00:02:44;5.20;;;1.98;;
43114;SDS011;28727;50.068;14.452;2022-12-07T00:05:16;4.03;;;2.00;;
43114;SDS011;28727;50.068;14.452;2022-12-07T00:07:48;4.10;;;2.25;;
43114;SDS011;28727;50.068;14.452;2022-12-07T00:10:20;3.63;;;2.30;;
43114;SDS011;28727;50.068;14.452;2022-12-07T00:12:52;3.75;;;1.88;;
43114;SDS011;28727;50.068;14.452;2022-12-07T00:15:23;3.28;;;1.90;;
43114;SDS011;28727;50.068;14.452;2022-12-07T00:17:55;4.50;;;2.50;;
43114;SDS011;28727;50.068;14.452;2022-12-07T00:20:27;4.63;;;2.53;;
43114;SDS011;28727;50.068;14.452;2022-12-07T00:22:59;4.53;;;2.00;;
43114;SDS011;28727;50.068;14.452;2022-12-07T00:25:30;3.53;;;1.98;;
43114;SDS011;28727;50.068;14.452;2022-12-07T00:28:02;3.65;;;2.10;;
43114;SDS011;28727;50.068;14.452;2022-12-07T00:30:34;3.58;;;2.20;;
43114;SDS011;28727;50.068;14.452;2022-12-07T00:33:06;4.10;;;2.10;;
43114;SDS011;28727;50.068;14.452;2022-12-07T00:35:37;6.05;;;2.58;;
43114;SDS011;28727;50.068;14.452;2022-12-07T00:38:09;5.78;;;2.92;;
43114;SDS011;28727;50.068;14.452;2022-12-07T00:40:41;3.72;;;2.03;;
43114;SDS011;28727;50.068;14.452;2022-12-07T00:43:12;3.20;;;2.00;;
43114;SDS011;28727;50.068;14.452;2022-12-07T00:45:44;5.15;;;2.60;;
43114;SDS011;28727;50.068;14.452;2022-12-07T00:48:15;3.35;;;2.42;;
43114;SDS011;28727;50.068;14.452;2022-12-07T00:50:47;5.10;;;2.55;;
43114;SDS011;28727;50.068;14.452;2022-12-07T00:53:20;3.67;;;2.20;;
43114;SDS011;28727;50.068;14.452;2022-12-07T00:55:51;4.88;;;2.55;;
43114;SDS011;28727;50.068;14.452;2022-12-07T00:58:27;3.50;;;2.28;;
43114;SDS011;28727;50.068;14.452;2022-12-07T01:01:02;3.80;;;2.17;;
43114;SDS011;28727;50.068;14.452;2022-12-07T01:03:35;3.47;;;2.35;;
43114;SDS011;28727;50.068;14.452;2022-12-07T01:06:06;5.45;;;2.83;;
43114;SDS011;28727;50.068;14.452;2022-12-07T01:08:38;4.03;;;2.38;;
43114;SDS011;28727;50.068;14.452;2022-12-07T01:11:12;4.40;;;2.22;;
43114;SDS011;28727;50.068;14.452;2022-12-07T01:13:46;4.53;;;2.63;;
43114;SDS011;28727;50.068;14.452;2022-12-07T01:16:18;4.25;;;2.95;;
43114;SDS011;28727;50.068;14.452;2022-12-07T01:18:51;2.95;;;2.33;;
43114;SDS011;28727;50.068;14.452;2022-12-07T01:21:25;4.35;;;2.30;;
43114;SDS011;28727;50.068;14.452;2022-12-07T01:23:58;3.40;;;2.15;;
43114;SDS011;28727;50.068;14.452;2022-12-07T01:26:30;3.75;;;2.70;;
43114;SDS011;28727;50.068;14.452;2022-12-07T01:29:02;3.38;;;2.30;;
43114;SDS011;28727;50.068;14.452;2022-12-07T01:31:34;4.25;;;2.65;;
43114;SDS011;28727;50.068;14.452;2022-12-07T01:34:05;5.20;;;2.83;;
43114;SDS011;28727;50.068;14.452;2022-12-07T01:36:37;4.15;;;2.70;;
43114;SDS011;28727;50.068;14.452;2022-12-07T01:39:09;4.20;;;2.53;;
43114;SDS011;28727;50.068;14.452;2022-12-07T01:41:41;3.97;;;2.53;;
43114;SDS011;28727;50.068;14.452;2022-12-07T01:46:55;4.05;;;2.50;;
43114;SDS011;28727;50.068;14.452;2022-12-07T01:49:33;6.35;;;2.75;;
43114;SDS011;28727;50.068;14.452;2022-12-07T01:52:17;5.53;;;3.15;;
43114;SDS011;28727;50.068;14.452;2022-12-07T01:54:51;3.95;;;2.58;;
43114;SDS011;28727;50.068;14.452;2022-12-07T01:57:28;5.70;;;2.72;;
43114;SDS011;28727;50.068;14.452;2022-12-07T02:00:03;4.28;;;2.70;;
43114;SDS011;28727;50.068;14.452;2022-12-07T02:03:04;4.32;;;2.78;;
43114;SDS011;28727;50.068;14.452;2022-12-07T02:05:40;4.38;;;2.67;;
43114;SDS011;28727;50.068;14.452;2022-12-07T02:08:14;5.07;;;3.08;;
43114;SDS011;28727;50.068;14.452;2022-12-07T02:10:46;4.43;;;2.80;;
43114;SDS011;28727;50.068;14.452;2022-12-07T02:13:28;4.43;;;3.00;;
43114;SDS011;28727;50.068;14.452;2022-12-07T02:24:54;3.85;;;2.70;;
43114;SDS011;28727;50.068;14.452;2022-12-07T02:30:21;6.07;;;3.58;;
43114;SDS011;28727;50.068;14.452;2022-12-07T02:33:00;5.13;;;3.15;;
43114;SDS011;28727;50.068;14.452;2022-12-07T02:35:43;5.85;;;3.00;;
43114;SDS011;28727;50.068;14.452;2022-12-07T02:38:20;5.25;;;3.05;;
43114;SDS011;28727;50.068;14.452;2022-12-07T02:43:52;3.97;;;2.63;;
43114;SDS011;28727;50.068;14.452;2022-12-07T02:46:34;5.68;;;2.80;;
43114;SDS011;28727;50.068;14.452;2022-12-07T02:49:09;4.72;;;3.08;;
43114;SDS011;28727;50.068;14.452;2022-12-07T02:51:42;5.80;;;2.72;;
43114;SDS011;28727;50.068;14.452;2022-12-07T02:54:17;5.07;;;3.58;;
43114;SDS011;28727;50.068;14.452;2022-12-07T03:00:05;4.82;;;3.00;;
43114;SDS011;28727;50.068;14.452;2022-12-07T03:16:41;6.13;;;3.20;;
43114;SDS011;28727;50.068;14.452;2022-12-07T03:19:19;4.38;;;3.05;;
43114;SDS011;28727;50.068;14.452;2022-12-07T03:21:58;4.03;;;2.97;;
43114;SDS011;28727;50.068;14.452;2022-12-07T03:24:43;5.63;;;3.15;;
43114;SDS011;28727;50.068;14.452;2022-12-07T03:32:58;4.32;;;2.90;;
43114;SDS011;28727;50.068;14.452;2022-12-07T03:35:36;4.00;;;2.90;;
43114;SDS011;28727;50.068;14.452;2022-12-07T03:38:33;5.47;;;3.78;;
43114;SDS011;28727;50.068;14.452;2022-12-07T03:41:11;5.30;;;3.38;;
43114;SDS011;28727;50.068;14.452;2022-12-07T03:43:49;4.32;;;3.08;;
43114;SDS011;28727;50.068;14.452;2022-12-07T03:55:08;4.67;;;3.07;;
43114;SDS011;28727;50.068;14.452;2022-12-07T03:57:47;5.03;;;3.30;;
43114;SDS011;28727;50.068;14.452;2022-12-07T04:00:22;5.00;;;3.30;;
43114;SDS011;28727;50.068;14.452;2022-12-07T04:02:54;5.45;;;3.10;;
43114;SDS011;28727;50.068;14.452;2022-12-07T04:05:27;6.53;;;3.15;;
43114;SDS011;28727;50.068;14.452;2022-12-07T04:07:59;5.22;;;3.35;;
43114;SDS011;28727;50.068;14.452;2022-12-07T04:10:31;5.30;;;3.45;;
43114;SDS011;28727;50.068;14.452;2022-12-07T04:13:03;7.03;;;4.28;;
43114;SDS011;28727;50.068;14.452;2022-12-07T04:15:34;5.07;;;3.55;;
43114;SDS011;28727;50.068;14.452;2022-12-07T04:18:06;5.75;;;3.58;;
43114;SDS011;28727;50.068;14.452;2022-12-07T04:20:38;6.35;;;3.90;;
43114;SDS011;28727;50.068;14.452;2022-12-07T04:23:10;4.20;;;2.95;;
43114;SDS011;28727;50.068;14.452;2022-12-07T04:25:41;4.18;;;3.05;;
43114;SDS011;28727;50.068;14.452;2022-12-07T04:28:15;5.60;;;4.20;;
43114;SDS011;28727;50.068;14.452;2022-12-07T04:30:47;4.47;;;3.47;;
43114;SDS011;28727;50.068;14.452;2022-12-07T04:33:18;4.78;;;3.60;;
43114;SDS011;28727;50.068;14.452;2022-12-07T04:35:50;5.53;;;3.63;;
43114;SDS011;28727;50.068;14.452;2022-12-07T04:38:22;5.70;;;3.50;;
43114;SDS011;28727;50.068;14.452;2022-12-07T04:40:54;6.25;;;3.70;;
43114;SDS011;28727;50.068;14.452;2022-12-07T04:43:26;6.28;;;3.80;;
43114;SDS011;28727;50.068;14.452;2022-12-07T04:45:57;5.65;;;4.25;;
43114;SDS011;28727;50.068;14.452;2022-12-07T04:48:29;5.13;;;3.97;;
43114;SDS011;28727;50.068;14.452;2022-12-07T04:51:02;6.00;;;4.30;;
43114;SDS011;28727;50.068;14.452;2022-12-07T04:53:35;6.03;;;4.30;;
43114;SDS011;28727;50.068;14.452;2022-12-07T04:56:06;6.20;;;4.60;;
43114;SDS011;28727;50.068;14.452;2022-12-07T04:58:40;6.00;;;4.00;;
43114;SDS011;28727;50.068;14.452;2022-12-07T05:01:14;6.03;;;4.65;;
43114;SDS011;28727;50.068;14.452;2022-12-07T05:03:46;8.73;;;5.18;;
43114;SDS011;28727;50.068;14.452;2022-12-07T05:06:18;8.57;;;5.43;;
43114;SDS011;28727;50.068;14.452;2022-12-07T05:08:50;8.02;;;4.47;;
43114;SDS011;28727;50.068;14.452;2022-12-07T05:11:22;7.97;;;4.68;;
43114;SDS011;28727;50.068;14.452;2022-12-07T05:14:14;6.80;;;5.10;;
43114;SDS011;28727;50.068;14.452;2022-12-07T05:16:50;7.47;;;5.20;;
43114;SDS011;28727;50.068;14.452;2022-12-07T05:19:22;8.38;;;4.40;;
43114;SDS011;28727;50.068;14.452;2022-12-07T05:21:54;6.90;;;4.85;;
43114;SDS011;28727;50.068;14.452;2022-12-07T05:24:25;8.30;;;5.10;;
43114;SDS011;28727;50.068;14.452;2022-12-07T05:26:57;8.95;;;5.03;;
43114;SDS011;28727;50.068;14.452;2022-12-07T05:29:29;8.18;;;5.32;;
43114;SDS011;28727;50.068;14.452;2022-12-07T05:32:00;8.90;;;5.35;;
43114;SDS011;28727;50.068;14.452;2022-12-07T05:34:32;7.70;;;5.25;;
43114;SDS011;28727;50.068;14.452;2022-12-07T05:37:04;8.43;;;5.47;;
43114;SDS011;28727;50.068;14.452;2022-12-07T05:39:35;8.40;;;5.55;;
43114;SDS011;28727;50.068;14.452;2022-12-07T05:42:10;8.57;;;5.70;;
43114;SDS011;28727;50.068;14.452;2022-12-07T05:44:45;8.48;;;5.70;;
43114;SDS011;28727;50.068;14.452;2022-12-07T05:47:17;8.57;;;5.57;;
43114;SDS011;28727;50.068;14.452;2022-12-07T05:49:49;8.02;;;5.25;;
43114;SDS011;28727;50.068;14.452;2022-12-07T05:52:21;8.85;;;5.15;;
43114;SDS011;28727;50.068;14.452;2022-12-07T05:54:53;8.68;;;5.80;;
43114;SDS011;28727;50.068;14.452;2022-12-07T05:57:25;10.70;;;6.30;;
43114;SDS011;28727;50.068;14.452;2022-12-07T05:59:56;10.27;;;6.40;;
43114;SDS011;28727;50.068;14.452;2022-12-07T06:02:28;9.43;;;6.00;;
43114;SDS011;28727;50.068;14.452;2022-12-07T06:05:00;9.00;;;5.50;;
43114;SDS011;28727;50.068;14.452;2022-12-07T06:07:34;9.45;;;6.28;;
43114;SDS011;28727;50.068;14.452;2022-12-07T06:10:06;11.10;;;6.53;;
43114;SDS011;28727;50.068;14.452;2022-12-07T06:12:38;9.27;;;5.90;;
43114;SDS011;28727;50.068;14.452;2022-12-07T06:16:42;9.13;;;6.03;;
43114;SDS011;28727;50.068;14.452;2022-12-07T06:19:14;10.35;;;5.35;;
43114;SDS011;28727;50.068;14.452;2022-12-07T06:21:46;7.93;;;5.28;;
43114;SDS011;28727;50.068;14.452;2022-12-07T06:24:19;8.73;;;5.65;;
43114;SDS011;28727;50.068;14.452;2022-12-07T06:26:51;9.55;;;5.90;;
43114;SDS011;28727;50.068;14.452;2022-12-07T06:29:22;9.70;;;5.50;;
43114;SDS011;28727;50.068;14.452;2022-12-07T06:31:54;10.30;;;5.63;;
43114;SDS011;28727;50.068;14.452;2022-12-07T06:34:26;12.43;;;6.07;;
43114;SDS011;28727;50.068;14.452;2022-12-07T06:36:58;10.23;;;5.65;;
43114;SDS011;28727;50.068;14.452;2022-12-07T06:39:30;11.68;;;6.28;;
43114;SDS011;28727;50.068;14.452;2022-12-07T06:42:02;10.07;;;5.97;;
43114;SDS011;28727;50.068;14.452;2022-12-07T06:44:34;10.95;;;5.85;;
43114;SDS011;28727;50.068;14.452;2022-12-07T06:47:05;9.02;;;5.93;;
43114;SDS011;28727;50.068;14.452;2022-12-07T06:49:59;10.50;;;5.72;;
43114;SDS011;28727;50.068;14.452;2022-12-07T06:52:31;10.80;;;5.93;;
43114;SDS011;28727;50.068;14.452;2022-12-07T06:55:03;9.23;;;5.72;;
43114;SDS011;28727;50.068;14.452;2022-12-07T06:57:35;9.50;;;5.05;;
43114;SDS011;28727;50.068;14.452;2022-12-07T07:00:06;8.77;;;5.88;;
43114;SDS011;28727;50.068;14.452;2022-12-07T07:02:38;9.75;;;5.43;;
43114;SDS011;28727;50.068;14.452;2022-12-07T07:05:13;9.20;;;5.32;;
43114;SDS011;28727;50.068;14.452;2022-12-07T07:07:48;8.25;;;4.10;;
43114;SDS011;28727;50.068;14.452;2022-12-07T07:10:40;9.70;;;5.82;;
43114;SDS011;28727;50.068;14.452;2022-12-07T07:13:12;9.20;;;5.60;;
43114;SDS011;28727;50.068;14.452;2022-12-07T07:15:44;8.43;;;4.95;;
43114;SDS011;28727;50.068;14.452;2022-12-07T07:18:16;11.30;;;6.38;;
43114;SDS011;28727;50.068;14.452;2022-12-07T07:20:47;8.48;;;4.78;;
43114;SDS011;28727;50.068;14.452;2022-12-07T07:23:20;8.07;;;5.22;;
43114;SDS011;28727;50.068;14.452;2022-12-07T07:25:52;9.30;;;5.57;;
43114;SDS011;28727;50.068;14.452;2022-12-07T07:28:24;10.57;;;5.35;;
43114;SDS011;28727;50.068;14.452;2022-12-07T07:30:56;13.27;;;5.53;;
43114;SDS011;28727;50.068;14.452;2022-12-07T07:33:27;8.32;;;4.90;;
43114;SDS011;28727;50.068;14.452;2022-12-07T07:35:59;8.38;;;5.10;;
43114;SDS011;28727;50.068;14.452;2022-12-07T07:38:31;9.43;;;5.35;;
43114;SDS011;28727;50.068;14.452;2022-12-07T07:41:02;10.50;;;5.68;;
43114;SDS011;28727;50.068;14.452;2022-12-07T07:43:34;8.18;;;5.05;;
43114;SDS011;28727;50.068;14.452;2022-12-07T07:46:06;8.52;;;5.47;;
43114;SDS011;28727;50.068;14.452;2022-12-07T07:48:37;6.28;;;4.45;;
43114;SDS011;28727;50.068;14.452;2022-12-07T07:51:09;8.95;;;4.53;;
43114;SDS011;28727;50.068;14.452;2022-12-07T07:53:41;12.82;;;5.13;;
43114;SDS011;28727;50.068;14.452;2022-12-07T07:56:12;10.95;;;5.65;;
43114;SDS011;28727;50.068;14.452;2022-12-07T07:58:44;10.98;;;4.93;;
43114;SDS011;28727;50.068;14.452;2022-12-07T08:01:16;7.65;;;4.95;;
43114;SDS011;28727;50.068;14.452;2022-12-07T08:03:48;7.25;;;4.63;;
43114;SDS011;28727;50.068;14.452;2022-12-07T08:06:21;7.97;;;5.20;;
43114;SDS011;28727;50.068;14.452;2022-12-07T08:08:59;10.63;;;5.10;;
43114;SDS011;28727;50.068;14.452;2022-12-07T08:11:34;7.90;;;4.68;;
43114;SDS011;28727;50.068;14.452;2022-12-07T08:14:06;9.90;;;5.15;;
43114;SDS011;28727;50.068;14.452;2022-12-07T08:16:38;8.68;;;4.88;;
43114;SDS011;28727;50.068;14.452;2022-12-07T08:19:09;9.00;;;5.00;;
43114;SDS011;28727;50.068;14.452;2022-12-07T08:21:44;9.57;;;5.38;;
43114;SDS011;28727;50.068;14.452;2022-12-07T08:24:16;8.02;;;4.90;;
43114;SDS011;28727;50.068;14.452;2022-12-07T08:26:47;10.05;;;5.30;;
43114;SDS011;28727;50.068;14.452;2022-12-07T08:29:21;11.13;;;5.65;;
43114;SDS011;28727;50.068;14.452;2022-12-07T08:31:53;9.18;;;6.47;;
43114;SDS011;28727;50.068;14.452;2022-12-07T08:34:24;9.68;;;5.05;;
43114;SDS011;28727;50.068;14.452;2022-12-07T08:37:00;9.27;;;5.18;;
43114;SDS011;28727;50.068;14.452;2022-12-07T08:39:32;8.98;;;5.20;;
43114;SDS011;28727;50.068;14.452;2022-12-07T08:42:03;9.65;;;5.05;;
43114;SDS011;28727;50.068;14.452;2022-12-07T08:44:35;6.47;;;4.75;;
43114;SDS011;28727;50.068;14.452;2022-12-07T08:47:07;7.22;;;4.75;;
43114;SDS011;28727;50.068;14.452;2022-12-07T08:49:41;7.80;;;4.75;;
43114;SDS011;28727;50.068;14.452;2022-12-07T08:52:17;7.65;;;5.32;;
43114;SDS011;28727;50.068;14.452;2022-12-07T08:54:49;8.07;;;4.95;;
43114;SDS011;28727;50.068;14.452;2022-12-07T08:57:21;7.05;;;5.00;;
43114;SDS011;28727;50.068;14.452;2022-12-07T08:59:52;8.85;;;5.20;;
43114;SDS011;28727;50.068;14.452;2022-12-07T09:02:30;10.30;;;5.90;;
43114;SDS011;28727;50.068;14.452;2022-12-07T09:05:03;8.80;;;5.38;;
43114;SDS011;28727;50.068;14.452;2022-12-07T09:07:34;8.38;;;5.32;;
43114;SDS011;28727;50.068;14.452;2022-12-07T09:10:08;9.18;;;6.05;;
43114;SDS011;28727;50.068;14.452;2022-12-07T09:12:40;10.57;;;5.38;;
43114;SDS011;28727;50.068;14.452;2022-12-07T09:15:15;10.43;;;5.03;;
43114;SDS011;28727;50.068;14.452;2022-12-07T09:17:47;9.85;;;5.15;;
43114;SDS011;28727;50.068;14.452;2022-12-07T09:20:19;8.40;;;5.35;;
43114;SDS011;28727;50.068;14.452;2022-12-07T09:22:58;7.20;;;4.97;;
43114;SDS011;28727;50.068;14.452;2022-12-07T09:25:29;7.35;;;4.90;;
43114;SDS011;28727;50.068;14.452;2022-12-07T09:28:01;12.52;;;5.35;;
43114;SDS011;28727;50.068;14.452;2022-12-07T09:30:32;8.27;;;5.05;;
43114;SDS011;28727;50.068;14.452;2022-12-07T09:33:24;8.88;;;5.20;;
43114;SDS011;28727;50.068;14.452;2022-12-07T09:35:56;8.30;;;4.85;;
43114;SDS011;28727;50.068;14.452;2022-12-07T09:38:28;8.52;;;4.90;;
43114;SDS011;28727;50.068;14.452;2022-12-07T09:41:04;8.07;;;5.13;;
43114;SDS011;28727;50.068;14.452;2022-12-07T09:43:38;7.95;;;5.45;;
43114;SDS011;28727;50.068;14.452;2022-12-07T09:46:16;9.65;;;5.70;;
43114;SDS011;28727;50.068;14.452;2022-12-07T09:48:50;8.00;;;5.43;;
43114;SDS011;28727;50.068;14.452;2022-12-07T09:51:23;8.57;;;5.20;;
43114;SDS011;28727;50.068;14.452;2022-12-07T09:53:56;9.32;;;5.35;;
43114;SDS011;28727;50.068;14.452;2022-12-07T09:56:30;8.57;;;4.97;;
43114;SDS011;28727;50.068;14.452;2022-12-07T09:59:02;8.77;;;5.20;;
43114;SDS011;28727;50.068;14.452;2022-12-07T10:01:34;10.00;;;5.28;;
43114;SDS011;28727;50.068;14.452;2022-12-07T10:04:46;8.27;;;5.53;;
43114;SDS011;28727;50.068;14.452;2022-12-07T10:07:04;9.40;;;5.13;;
43114;SDS011;28727;50.068;14.452;2022-12-07T10:09:36;10.27;;;5.80;;
43114;SDS011;28727;50.068;14.452;2022-12-07T10:12:08;9.48;;;5.70;;
43114;SDS011;28727;50.068;14.452;2022-12-07T10:15:02;7.70;;;4.70;;
43114;SDS011;28727;50.068;14.452;2022-12-07T10:17:39;8.60;;;4.97;;
43114;SDS011;28727;50.068;14.452;2022-12-07T10:20:15;9.25;;;5.20;;
43114;SDS011;28727;50.068;14.452;2022-12-07T10:23:00;11.07;;;5.00;;
43114;SDS011;28727;50.068;14.452;2022-12-07T10:25:34;10.18;;;4.78;;
43114;SDS011;28727;50.068;14.452;2022-12-07T10:30:53;6.32;;;4.57;;
43114;SDS011;28727;50.068;14.452;2022-12-07T10:36:01;5.97;;;3.50;;
43114;SDS011;28727;50.068;14.452;2022-12-07T10:39:00;10.50;;;5.40;;
43114;SDS011;28727;50.068;14.452;2022-12-07T10:41:35;8.55;;;4.93;;
43114;SDS011;28727;50.068;14.452;2022-12-07T10:44:07;10.00;;;5.32;;
43114;SDS011;28727;50.068;14.452;2022-12-07T10:53:07;12.55;;;5.35;;
43114;SDS011;28727;50.068;14.452;2022-12-07T11:01:52;7.80;;;5.18;;
43114;SDS011;28727;50.068;14.452;2022-12-07T11:04:59;8.90;;;5.45;;
43114;SDS011;28727;50.068;14.452;2022-12-07T11:14:26;7.95;;;4.03;;
43114;SDS011;28727;50.068;14.452;2022-12-07T11:17:20;9.48;;;5.43;;
43114;SDS011;28727;50.068;14.452;2022-12-07T11:20:05;9.45;;;6.05;;
43114;SDS011;28727;50.068;14.452;2022-12-07T11:25:53;10.20;;;5.68;;
43114;SDS011;28727;50.068;14.452;2022-12-07T11:28:53;13.37;;;5.77;;
43114;SDS011;28727;50.068;14.452;2022-12-07T11:31:50;9.80;;;5.20;;
43114;SDS011;28727;50.068;14.452;2022-12-07T11:34:53;10.73;;;6.03;;
43114;SDS011;28727;50.068;14.452;2022-12-07T11:37:42;9.20;;;5.60;;
43114;SDS011;28727;50.068;14.452;2022-12-07T11:46:08;7.70;;;4.50;;
43114;SDS011;28727;50.068;14.452;2022-12-07T11:49:32;7.57;;;4.80;;
43114;SDS011;28727;50.068;14.452;2022-12-07T11:51:44;7.53;;;4.13;;
43114;SDS011;28727;50.068;14.452;2022-12-07T11:54:24;9.38;;;4.53;;
43114;SDS011;28727;50.068;14.452;2022-12-07T11:57:04;7.05;;;4.90;;
43114;SDS011;28727;50.068;14.452;2022-12-07T11:59:52;6.82;;;4.35;;
43114;SDS011;28727;50.068;14.452;2022-12-07T12:02:41;6.95;;;4.30;;
43114;SDS011;28727;50.068;14.452;2022-12-07T12:05:22;6.57;;;4.38;;
43114;SDS011;28727;50.068;14.452;2022-12-07T12:08:04;9.38;;;4.32;;
43114;SDS011;28727;50.068;14.452;2022-12-07T12:25:47;7.30;;;3.88;;
43114;SDS011;28727;50.068;14.452;2022-12-07T12:34:00;5.07;;;3.78;;
43114;SDS011;28727;50.068;14.452;2022-12-07T12:39:12;7.00;;;3.97;;
43114;SDS011;28727;50.068;14.452;2022-12-07T12:47:01;7.60;;;3.83;;
43114;SDS011;28727;50.068;14.452;2022-12-07T12:49:35;5.25;;;3.53;;
43114;SDS011;28727;50.068;14.452;2022-12-07T12:54:59;5.07;;;3.08;;
43114;SDS011;28727;50.068;14.452;2022-12-07T12:57:42;5.30;;;3.30;;
43114;SDS011;28727;50.068;14.452;2022-12-07T13:00:21;5.47;;;3.33;;
43114;SDS011;28727;50.068;14.452;2022-12-07T13:02:55;6.47;;;4.07;;
43114;SDS011;28727;50.068;14.452;2022-12-07T13:05:30;7.50;;;3.33;;
43114;SDS011;28727;50.068;14.452;2022-12-07T13:08:13;7.13;;;3.60;;
43114;SDS011;28727;50.068;14.452;2022-12-07T13:11:26;6.18;;;2.47;;
43114;SDS011;28727;50.068;14.452;2022-12-07T13:20:03;7.03;;;3.65;;
43114;SDS011;28727;50.068;14.452;2022-12-07T13:22:38;6.63;;;3.17;;
43114;SDS011;28727;50.068;14.452;2022-12-07T13:25:23;5.45;;;3.28;;
43114;SDS011;28727;50.068;14.452;2022-12-07T13:28:03;5.15;;;3.40;;
43114;SDS011;28727;50.068;14.452;2022-12-07T13:33:32;6.15;;;3.38;;
43114;SDS011;28727;50.068;14.452;2022-12-07T13:36:10;5.70;;;2.90;;
43114;SDS011;28727;50.068;14.452;2022-12-07T13:38:56;5.90;;;2.92;;
43114;SDS011;28727;50.068;14.452;2022-12-07T13:44:02;7.90;;;3.28;;
43114;SDS011;28727;50.068;14.452;2022-12-07T13:49:22;6.53;;;2.60;;
43114;SDS011;28727;50.068;14.452;2022-12-07T13:54:57;5.43;;;2.75;;
43114;SDS011;28727;50.068;14.452;2022-12-07T13:57:33;6.10;;;3.03;;
43114;SDS011;28727;50.068;14.452;2022-12-07T14:05:43;6.10;;;3.60;;
43114;SDS011;28727;50.068;14.452;2022-12-07T14:13:29;10.13;;;4.70;;
43114;SDS011;28727;50.068;14.452;2022-12-07T14:18:59;7.75;;;4.65;;
43114;SDS011;28727;50.068;14.452;2022-12-07T14:21:33;8.30;;;4.50;;
43114;SDS011;28727;50.068;14.452;2022-12-07T14:26:47;7.25;;;4.38;;
43114;SDS011;28727;50.068;14.452;2022-12-07T14:35:02;9.32;;;5.53;;
43114;SDS011;28727;50.068;14.452;2022-12-07T14:37:42;10.20;;;5.05;;
43114;SDS011;28727;50.068;14.452;2022-12-07T14:40:20;8.43;;;5.38;;
43114;SDS011;28727;50.068;14.452;2022-12-07T14:43:03;9.80;;;5.35;;
43114;SDS011;28727;50.068;14.452;2022-12-07T14:45:38;8.68;;;4.90;;
43114;SDS011;28727;50.068;14.452;2022-12-07T14:48:11;8.77;;;5.25;;
43114;SDS011;28727;50.068;14.452;2022-12-07T14:51:07;11.52;;;5.57;;
43114;SDS011;28727;50.068;14.452;2022-12-07T14:54:20;8.00;;;5.03;;
43114;SDS011;28727;50.068;14.452;2022-12-07T14:56:55;8.63;;;5.18;;
43114;SDS011;28727;50.068;14.452;2022-12-07T14:59:29;9.32;;;5.40;;
43114;SDS011;28727;50.068;14.452;2022-12-07T15:02:01;8.10;;;5.25;;
43114;SDS011;28727;50.068;14.452;2022-12-07T15:04:33;12.10;;;5.00;;
43114;SDS011;28727;50.068;14.452;2022-12-07T15:07:06;9.90;;;5.57;;
43114;SDS011;28727;50.068;14.452;2022-12-07T15:09:45;11.98;;;5.80;;
43114;SDS011;28727;50.068;14.452;2022-12-07T15:12:17;9.77;;;5.78;;
43114;SDS011;28727;50.068;14.452;2022-12-07T15:14:49;10.07;;;5.45;;
43114;SDS011;28727;50.068;14.452;2022-12-07T15:17:20;9.55;;;5.43;;
43114;SDS011;28727;50.068;14.452;2022-12-07T15:20:02;9.70;;;5.45;;
43114;SDS011;28727;50.068;14.452;2022-12-07T15:22:35;10.57;;;4.78;;
43114;SDS011;28727;50.068;14.452;2022-12-07T15:25:09;9.60;;;4.63;;
43114;SDS011;28727;50.068;14.452;2022-12-07T15:27:44;8.82;;;5.22;;
43114;SDS011;28727;50.068;14.452;2022-12-07T15:30:20;8.52;;;4.97;;
43114;SDS011;28727;50.068;14.452;2022-12-07T15:32:52;9.75;;;4.85;;
43114;SDS011;28727;50.068;14.452;2022-12-07T15:35:24;7.18;;;4.38;;
43114;SDS011;28727;50.068;14.452;2022-12-07T15:37:55;8.85;;;4.50;;
43114;SDS011;28727;50.068;14.452;2022-12-07T15:40:31;9.35;;;5.03;;
43114;SDS011;28727;50.068;14.452;2022-12-07T15:43:03;8.10;;;4.60;;
43114;SDS011;28727;50.068;14.452;2022-12-07T15:45:35;8.95;;;5.07;;
43114;SDS011;28727;50.068;14.452;2022-12-07T15:48:09;9.20;;;5.55;;
43114;SDS011;28727;50.068;14.452;2022-12-07T15:51:08;9.80;;;5.50;;
43114;SDS011;28727;50.068;14.452;2022-12-07T15:53:40;8.20;;;4.82;;
43114;SDS011;28727;50.068;14.452;2022-12-07T15:56:12;8.60;;;5.25;;
43114;SDS011;28727;50.068;14.452;2022-12-07T15:58:43;10.57;;;5.57;;
43114;SDS011;28727;50.068;14.452;2022-12-07T16:01:16;8.90;;;5.38;;
43114;SDS011;28727;50.068;14.452;2022-12-07T16:03:49;8.70;;;5.00;;
43114;SDS011;28727;50.068;14.452;2022-12-07T16:06:21;8.52;;;4.90;;
43114;SDS011;28727;50.068;14.452;2022-12-07T16:08:52;9.93;;;4.80;;
43114;SDS011;28727;50.068;14.452;2022-12-07T16:11:24;8.05;;;4.60;;
43114;SDS011;28727;50.068;14.452;2022-12-07T16:13:56;8.45;;;4.50;;
43114;SDS011;28727;50.068;14.452;2022-12-07T16:16:28;8.75;;;5.15;;
43114;SDS011;28727;50.068;14.452;2022-12-07T16:18:59;8.70;;;4.88;;
43114;SDS011;28727;50.068;14.452;2022-12-07T16:21:31;11.98;;;5.47;;
43114;SDS011;28727;50.068;14.452;2022-12-07T16:24:03;9.95;;;5.35;;
43114;SDS011;28727;50.068;14.452;2022-12-07T16:26:36;8.07;;;5.25;;
43114;SDS011;28727;50.068;14.452;2022-12-07T16:29:10;7.85;;;4.68;;
43114;SDS011;28727;50.068;14.452;2022-12-07T16:31:42;8.63;;;5.10;;
43114;SDS011;28727;50.068;14.452;2022-12-07T16:34:16;7.82;;;4.68;;
43114;SDS011;28727;50.068;14.452;2022-12-07T16:36:48;9.57;;;4.97;;
43114;SDS011;28727;50.068;14.452;2022-12-07T16:39:36;7.90;;;4.55;;
43114;SDS011;28727;50.068;14.452;2022-12-07T16:42:10;11.82;;;5.35;;
43114;SDS011;28727;50.068;14.452;2022-12-07T16:44:41;7.53;;;4.20;;
43114;SDS011;28727;50.068;14.452;2022-12-07T16:47:13;8.43;;;4.78;;
43114;SDS011;28727;50.068;14.452;2022-12-07T16:49:45;9.35;;;4.35;;
43114;SDS011;28727;50.068;14.452;2022-12-07T16:52:17;10.10;;;5.47;;
43114;SDS011;28727;50.068;14.452;2022-12-07T16:54:51;9.10;;;5.22;;
43114;SDS011;28727;50.068;14.452;2022-12-07T16:57:23;10.13;;;5.05;;
43114;SDS011;28727;50.068;14.452;2022-12-07T16:59:55;9.90;;;5.22;;
43114;SDS011;28727;50.068;14.452;2022-12-07T17:02:27;10.23;;;4.95;;
43114;SDS011;28727;50.068;14.452;2022-12-07T17:04:59;9.23;;;5.25;;
43114;SDS011;28727;50.068;14.452;2022-12-07T17:07:31;8.77;;;5.00;;
43114;SDS011;28727;50.068;14.452;2022-12-07T17:10:03;9.15;;;5.07;;
43114;SDS011;28727;50.068;14.452;2022-12-07T17:12:35;9.40;;;5.40;;
43114;SDS011;28727;50.068;14.452;2022-12-07T17:15:09;9.75;;;5.28;;
43114;SDS011;28727;50.068;14.452;2022-12-07T17:17:53;10.60;;;5.68;;
43114;SDS011;28727;50.068;14.452;2022-12-07T17:20:26;8.43;;;4.60;;
43114;SDS011;28727;50.068;14.452;2022-12-07T17:23:02;12.77;;;6.38;;
43114;SDS011;28727;50.068;14.452;2022-12-07T17:25:33;8.98;;;5.53;;
43114;SDS011;28727;50.068;14.452;2022-12-07T17:28:05;13.07;;;5.72;;
43114;SDS011;28727;50.068;14.452;2022-12-07T17:30:37;11.95;;;6.10;;
43114;SDS011;28727;50.068;14.452;2022-12-07T17:33:12;13.07;;;6.53;;
43114;SDS011;28727;50.068;14.452;2022-12-07T17:35:46;13.57;;;6.30;;
43114;SDS011;28727;50.068;14.452;2022-12-07T17:38:19;12.30;;;6.65;;
43114;SDS011;28727;50.068;14.452;2022-12-07T17:40:53;14.48;;;7.20;;
43114;SDS011;28727;50.068;14.452;2022-12-07T17:43:26;10.05;;;5.80;;
43114;SDS011;28727;50.068;14.452;2022-12-07T17:45:57;9.80;;;5.68;;
43114;SDS011;28727;50.068;14.452;2022-12-07T17:48:29;9.93;;;5.78;;
43114;SDS011;28727;50.068;14.452;2022-12-07T17:51:01;9.77;;;6.07;;
43114;SDS011;28727;50.068;14.452;2022-12-07T17:53:52;12.15;;;5.70;;